sensor_id;sensor_type;location;lat;lon;timestamp;P1;durP1;ratioP1;P2;durP2;ratioP2
57605;SDS011;43430;48.204;11.556;2023-01-29T00:00:42;25.27;;;10.95;;
57605;SDS011;43430;48.204;11.556;2023-01-29T00:03:07;25.33;;;10.35;;
57605;SDS011;43430;48.204;11.556;2023-01-29T00:05:33;26.45;;;11.13;;
57605;SDS011;43430;48.204;11.556;2023-01-29T00:07:59;27.38;;;11.15;;
57605;SDS011;43430;48.204;11.556;2023-01-29T00:10:24;24.48;;;10.13;;
57605;SDS011;43430;48.204;11.556;2023-01-29T00:12:50;25.52;;;10.77;;
57605;SDS011;43430;48.204;11.556;2023-01-29T00:15:16;25.20;;;10.50;;
57605;SDS011;43430;48.204;11.556;2023-01-29T00:17:41;26.77;;;10.98;;
57605;SDS011;43430;48.204;11.556;2023-01-29T00:20:07;23.85;;;10.20;;
57605;SDS011;43430;48.204;11.556;2023-01-29T00:22:33;29.25;;;10.45;;
57605;SDS011;43430;48.204;11.556;2023-01-29T00:24:58;22.48;;;9.30;;
57605;SDS011;43430;48.204;11.556;2023-01-29T00:27:24;24.92;;;9.35;;
57605;SDS011;43430;48.204;11.556;2023-01-29T00:29:49;26.77;;;10.38;;
57605;SDS011;43430;48.204;11.556;2023-01-29T00:32:33;23.65;;;10.48;;
57605;SDS011;43430;48.204;11.556;2023-01-29T00:34:58;23.90;;;10.23;;
57605;SDS011;43430;48.204;11.556;2023-01-29T00:37:24;22.90;;;10.80;;
57605;SDS011;43430;48.204;11.556;2023-01-29T00:39:49;25.02;;;9.70;;
57605;SDS011;43430;48.204;11.556;2023-01-29T00:42:14;23.20;;;9.27;;
57605;SDS011;43430;48.204;11.556;2023-01-29T00:44:58;22.95;;;8.48;;
57605;SDS011;43430;48.204;11.556;2023-01-29T00:47:24;22.38;;;9.70;;
57605;SDS011;43430;48.204;11.556;2023-01-29T00:50:03;23.02;;;9.65;;
57605;SDS011;43430;48.204;11.556;2023-01-29T00:52:30;25.17;;;9.05;;
57605;SDS011;43430;48.204;11.556;2023-01-29T00:54:57;21.17;;;9.25;;
57605;SDS011;43430;48.204;11.556;2023-01-29T00:57:24;22.75;;;9.65;;
57605;SDS011;43430;48.204;11.556;2023-01-29T00:59:51;22.92;;;9.88;;
57605;SDS011;43430;48.204;11.556;2023-01-29T01:02:17;22.15;;;10.30;;
57605;SDS011;43430;48.204;11.556;2023-01-29T01:05:02;20.45;;;8.02;;
57605;SDS011;43430;48.204;11.556;2023-01-29T01:07:30;19.85;;;7.60;;
57605;SDS011;43430;48.204;11.556;2023-01-29T01:09:55;20.60;;;8.88;;
57605;SDS011;43430;48.204;11.556;2023-01-29T01:12:39;20.75;;;9.45;;
57605;SDS011;43430;48.204;11.556;2023-01-29T01:15:05;22.38;;;8.80;;
57605;SDS011;43430;48.204;11.556;2023-01-29T01:17:30;17.48;;;8.35;;
57605;SDS011;43430;48.204;11.556;2023-01-29T01:19:56;18.85;;;8.25;;
57605;SDS011;43430;48.204;11.556;2023-01-29T01:22:21;19.33;;;7.80;;
57605;SDS011;43430;48.204;11.556;2023-01-29T01:24:47;18.15;;;8.20;;
57605;SDS011;43430;48.204;11.556;2023-01-29T01:27:12;17.02;;;6.65;;
57605;SDS011;43430;48.204;11.556;2023-01-29T01:29:38;16.30;;;7.22;;
57605;SDS011;43430;48.204;11.556;2023-01-29T01:32:03;15.55;;;6.85;;
57605;SDS011;43430;48.204;11.556;2023-01-29T01:34:29;15.60;;;6.43;;
57605;SDS011;43430;48.204;11.556;2023-01-29T01:36:55;18.08;;;6.13;;
57605;SDS011;43430;48.204;11.556;2023-01-29T01:39:20;12.82;;;5.50;;
57605;SDS011;43430;48.204;11.556;2023-01-29T01:41:46;14.75;;;5.82;;
57605;SDS011;43430;48.204;11.556;2023-01-29T01:47:29;9.35;;;4.43;;
57605;SDS011;43430;48.204;11.556;2023-01-29T01:50:00;10.50;;;3.80;;
57605;SDS011;43430;48.204;11.556;2023-01-29T01:52:32;11.23;;;4.50;;
57605;SDS011;43430;48.204;11.556;2023-01-29T01:55:01;11.85;;;3.58;;
57605;SDS011;43430;48.204;11.556;2023-01-29T01:57:26;8.00;;;3.38;;
57605;SDS011;43430;48.204;11.556;2023-01-29T01:59:55;10.60;;;4.07;;
57605;SDS011;43430;48.204;11.556;2023-01-29T02:02:24;11.02;;;4.03;;
57605;SDS011;43430;48.204;11.556;2023-01-29T02:05:09;10.65;;;4.72;;
57605;SDS011;43430;48.204;11.556;2023-01-29T02:07:55;10.50;;;4.63;;
57605;SDS011;43430;48.204;11.556;2023-01-29T02:10:42;9.75;;;4.20;;
57605;SDS011;43430;48.204;11.556;2023-01-29T02:13:11;8.25;;;4.00;;
57605;SDS011;43430;48.204;11.556;2023-01-29T02:15:40;9.48;;;3.75;;
57605;SDS011;43430;48.204;11.556;2023-01-29T02:18:11;8.77;;;4.38;;
57605;SDS011;43430;48.204;11.556;2023-01-29T02:20:38;11.45;;;4.63;;
57605;SDS011;43430;48.204;11.556;2023-01-29T02:36:45;14.10;;;5.85;;
57605;SDS011;43430;48.204;11.556;2023-01-29T02:44:27;15.23;;;6.25;;
57605;SDS011;43430;48.204;11.556;2023-01-29T02:47:03;11.02;;;4.20;;
57605;SDS011;43430;48.204;11.556;2023-01-29T02:49:49;10.90;;;4.43;;
57605;SDS011;43430;48.204;11.556;2023-01-29T02:52:22;12.17;;;4.30;;
57605;SDS011;43430;48.204;11.556;2023-01-29T02:55:07;12.40;;;4.55;;
57605;SDS011;43430;48.204;11.556;2023-01-29T02:57:38;9.95;;;4.63;;
57605;SDS011;43430;48.204;11.556;2023-01-29T03:02:46;13.55;;;5.55;;
57605;SDS011;43430;48.204;11.556;2023-01-29T03:05:20;11.27;;;5.55;;
57605;SDS011;43430;48.204;11.556;2023-01-29T03:07:53;11.48;;;5.10;;
57605;SDS011;43430;48.204;11.556;2023-01-29T03:12:57;14.77;;;6.28;;
57605;SDS011;43430;48.204;11.556;2023-01-29T03:15:30;15.23;;;5.57;;
57605;SDS011;43430;48.204;11.556;2023-01-29T03:18:36;10.02;;;5.50;;
57605;SDS011;43430;48.204;11.556;2023-01-29T03:21:06;14.07;;;6.32;;
57605;SDS011;43430;48.204;11.556;2023-01-29T03:23:54;11.85;;;5.13;;
57605;SDS011;43430;48.204;11.556;2023-01-29T03:26:39;10.93;;;5.63;;
57605;SDS011;43430;48.204;11.556;2023-01-29T03:29:25;13.25;;;5.90;;
57605;SDS011;43430;48.204;11.556;2023-01-29T03:32:10;13.77;;;5.07;;
57605;SDS011;43430;48.204;11.556;2023-01-29T03:34:39;15.25;;;6.32;;
57605;SDS011;43430;48.204;11.556;2023-01-29T03:37:31;13.20;;;5.63;;
57605;SDS011;43430;48.204;11.556;2023-01-29T03:39:59;13.48;;;5.03;;
57605;SDS011;43430;48.204;11.556;2023-01-29T03:42:27;9.93;;;4.65;;
57605;SDS011;43430;48.204;11.556;2023-01-29T03:52:46;10.00;;;4.18;;
57605;SDS011;43430;48.204;11.556;2023-01-29T03:57:59;12.50;;;6.15;;
57605;SDS011;43430;48.204;11.556;2023-01-29T04:03:23;9.80;;;4.53;;
57605;SDS011;43430;48.204;11.556;2023-01-29T04:05:58;10.90;;;4.90;;
57605;SDS011;43430;48.204;11.556;2023-01-29T04:08:34;13.40;;;5.32;;
57605;SDS011;43430;48.204;11.556;2023-01-29T04:11:10;11.43;;;4.72;;
57605;SDS011;43430;48.204;11.556;2023-01-29T04:13:38;12.30;;;5.80;;
57605;SDS011;43430;48.204;11.556;2023-01-29T04:16:05;9.32;;;4.38;;
57605;SDS011;43430;48.204;11.556;2023-01-29T04:18:34;11.73;;;4.78;;
57605;SDS011;43430;48.204;11.556;2023-01-29T04:21:00;11.23;;;4.65;;
57605;SDS011;43430;48.204;11.556;2023-01-29T04:23:26;10.75;;;4.40;;
57605;SDS011;43430;48.204;11.556;2023-01-29T04:25:52;10.75;;;4.68;;
57605;SDS011;43430;48.204;11.556;2023-01-29T04:28:25;10.05;;;4.40;;
57605;SDS011;43430;48.204;11.556;2023-01-29T04:30:59;10.60;;;4.75;;
57605;SDS011;43430;48.204;11.556;2023-01-29T04:33:34;12.45;;;4.65;;
57605;SDS011;43430;48.204;11.556;2023-01-29T04:41:32;13.07;;;5.05;;
57605;SDS011;43430;48.204;11.556;2023-01-29T04:44:07;11.05;;;4.18;;
57605;SDS011;43430;48.204;11.556;2023-01-29T04:46:51;9.65;;;4.10;;
57605;SDS011;43430;48.204;11.556;2023-01-29T04:58:17;11.48;;;4.25;;
57605;SDS011;43430;48.204;11.556;2023-01-29T05:00:47;10.32;;;4.80;;
57605;SDS011;43430;48.204;11.556;2023-01-29T05:03:17;16.67;;;6.13;;
57605;SDS011;43430;48.204;11.556;2023-01-29T05:05:45;11.23;;;4.47;;
57605;SDS011;43430;48.204;11.556;2023-01-29T05:08:14;9.95;;;4.07;;
57605;SDS011;43430;48.204;11.556;2023-01-29T05:10:44;9.65;;;4.97;;
57605;SDS011;43430;48.204;11.556;2023-01-29T05:13:12;9.85;;;4.57;;
57605;SDS011;43430;48.204;11.556;2023-01-29T05:15:48;10.75;;;4.60;;
57605;SDS011;43430;48.204;11.556;2023-01-29T05:18:18;8.43;;;3.83;;
57605;SDS011;43430;48.204;11.556;2023-01-29T05:20:44;11.95;;;5.15;;
57605;SDS011;43430;48.204;11.556;2023-01-29T05:25:41;12.50;;;5.38;;
57605;SDS011;43430;48.204;11.556;2023-01-29T05:28:07;9.07;;;4.45;;
57605;SDS011;43430;48.204;11.556;2023-01-29T05:30:46;11.95;;;5.68;;
57605;SDS011;43430;48.204;11.556;2023-01-29T05:33:14;12.98;;;5.40;;
57605;SDS011;43430;48.204;11.556;2023-01-29T05:35:49;15.18;;;6.47;;
57605;SDS011;43430;48.204;11.556;2023-01-29T05:38:15;12.30;;;4.95;;
57605;SDS011;43430;48.204;11.556;2023-01-29T05:40:41;11.70;;;4.97;;
57605;SDS011;43430;48.204;11.556;2023-01-29T05:43:14;12.98;;;5.25;;
57605;SDS011;43430;48.204;11.556;2023-01-29T05:45:41;13.25;;;5.75;;
57605;SDS011;43430;48.204;11.556;2023-01-29T05:48:07;12.02;;;5.40;;
57605;SDS011;43430;48.204;11.556;2023-01-29T05:50:32;12.88;;;5.32;;
57605;SDS011;43430;48.204;11.556;2023-01-29T05:52:58;13.55;;;5.93;;
57605;SDS011;43430;48.204;11.556;2023-01-29T05:55:25;12.35;;;6.15;;
57605;SDS011;43430;48.204;11.556;2023-01-29T05:57:50;13.57;;;5.70;;
57605;SDS011;43430;48.204;11.556;2023-01-29T06:00:16;12.57;;;5.50;;
57605;SDS011;43430;48.204;11.556;2023-01-29T06:02:42;13.68;;;5.35;;
57605;SDS011;43430;48.204;11.556;2023-01-29T06:05:07;13.75;;;6.43;;
57605;SDS011;43430;48.204;11.556;2023-01-29T06:07:33;11.73;;;5.90;;
57605;SDS011;43430;48.204;11.556;2023-01-29T06:09:58;12.00;;;4.95;;
57605;SDS011;43430;48.204;11.556;2023-01-29T06:12:27;12.00;;;4.90;;
57605;SDS011;43430;48.204;11.556;2023-01-29T06:14:52;13.65;;;5.68;;
57605;SDS011;43430;48.204;11.556;2023-01-29T06:17:18;13.63;;;5.38;;
57605;SDS011;43430;48.204;11.556;2023-01-29T06:19:43;11.38;;;5.55;;
57605;SDS011;43430;48.204;11.556;2023-01-29T06:22:08;13.07;;;5.45;;
57605;SDS011;43430;48.204;11.556;2023-01-29T06:24:34;13.27;;;6.35;;
57605;SDS011;43430;48.204;11.556;2023-01-29T06:27:00;13.43;;;6.30;;
57605;SDS011;43430;48.204;11.556;2023-01-29T06:29:25;13.63;;;5.63;;
57605;SDS011;43430;48.204;11.556;2023-01-29T06:31:51;12.35;;;5.88;;
57605;SDS011;43430;48.204;11.556;2023-01-29T06:34:16;14.45;;;5.55;;
57605;SDS011;43430;48.204;11.556;2023-01-29T06:36:41;15.27;;;6.28;;
57605;SDS011;43430;48.204;11.556;2023-01-29T06:39:07;13.48;;;6.05;;
57605;SDS011;43430;48.204;11.556;2023-01-29T06:41:33;13.13;;;6.45;;
57605;SDS011;43430;48.204;11.556;2023-01-29T06:43:58;15.07;;;6.53;;
57605;SDS011;43430;48.204;11.556;2023-01-29T06:46:24;13.30;;;5.95;;
57605;SDS011;43430;48.204;11.556;2023-01-29T06:48:49;15.40;;;6.75;;
57605;SDS011;43430;48.204;11.556;2023-01-29T06:51:15;13.95;;;6.32;;
57605;SDS011;43430;48.204;11.556;2023-01-29T06:53:40;15.73;;;6.72;;
57605;SDS011;43430;48.204;11.556;2023-01-29T06:56:06;9.30;;;3.72;;
57605;SDS011;43430;48.204;11.556;2023-01-29T06:58:32;7.38;;;2.85;;
57605;SDS011;43430;48.204;11.556;2023-01-29T07:01:07;7.75;;;2.30;;
57605;SDS011;43430;48.204;11.556;2023-01-29T07:03:34;7.07;;;2.60;;
57605;SDS011;43430;48.204;11.556;2023-01-29T07:06:00;9.50;;;3.53;;
57605;SDS011;43430;48.204;11.556;2023-01-29T07:08:26;5.85;;;2.85;;
57605;SDS011;43430;48.204;11.556;2023-01-29T07:10:52;10.45;;;4.65;;
57605;SDS011;43430;48.204;11.556;2023-01-29T07:13:18;10.27;;;4.38;;
57605;SDS011;43430;48.204;11.556;2023-01-29T07:15:43;7.45;;;3.20;;
57605;SDS011;43430;48.204;11.556;2023-01-29T07:18:09;11.32;;;5.13;;
57605;SDS011;43430;48.204;11.556;2023-01-29T07:20:38;13.00;;;5.78;;
57605;SDS011;43430;48.204;11.556;2023-01-29T07:23:04;13.43;;;5.40;;
57605;SDS011;43430;48.204;11.556;2023-01-29T07:25:30;12.02;;;5.97;;
57605;SDS011;43430;48.204;11.556;2023-01-29T07:28:01;12.73;;;5.70;;
57605;SDS011;43430;48.204;11.556;2023-01-29T07:30:27;10.55;;;4.82;;
57605;SDS011;43430;48.204;11.556;2023-01-29T07:32:52;8.15;;;3.35;;
57605;SDS011;43430;48.204;11.556;2023-01-29T07:35:18;9.30;;;4.05;;
57605;SDS011;43430;48.204;11.556;2023-01-29T07:37:43;12.07;;;4.82;;
57605;SDS011;43430;48.204;11.556;2023-01-29T07:40:09;9.77;;;5.47;;
57605;SDS011;43430;48.204;11.556;2023-01-29T07:42:36;12.80;;;5.45;;
57605;SDS011;43430;48.204;11.556;2023-01-29T07:45:04;13.55;;;6.55;;
57605;SDS011;43430;48.204;11.556;2023-01-29T07:47:30;11.30;;;4.65;;
57605;SDS011;43430;48.204;11.556;2023-01-29T07:49:56;15.02;;;6.30;;
57605;SDS011;43430;48.204;11.556;2023-01-29T07:52:21;12.65;;;4.72;;
57605;SDS011;43430;48.204;11.556;2023-01-29T07:54:46;12.60;;;5.28;;
57605;SDS011;43430;48.204;11.556;2023-01-29T07:57:12;24.30;;;9.93;;
57605;SDS011;43430;48.204;11.556;2023-01-29T07:59:37;21.73;;;8.82;;
57605;SDS011;43430;48.204;11.556;2023-01-29T08:02:02;11.82;;;5.50;;
57605;SDS011;43430;48.204;11.556;2023-01-29T08:04:28;13.30;;;5.60;;
57605;SDS011;43430;48.204;11.556;2023-01-29T08:06:53;10.75;;;4.55;;
57605;SDS011;43430;48.204;11.556;2023-01-29T08:09:19;14.38;;;5.90;;
57605;SDS011;43430;48.204;11.556;2023-01-29T08:11:44;14.40;;;6.38;;
57605;SDS011;43430;48.204;11.556;2023-01-29T08:14:10;12.13;;;5.30;;
57605;SDS011;43430;48.204;11.556;2023-01-29T08:16:35;10.15;;;4.63;;
57605;SDS011;43430;48.204;11.556;2023-01-29T08:19:01;9.85;;;4.68;;
57605;SDS011;43430;48.204;11.556;2023-01-29T08:21:26;9.35;;;4.13;;
57605;SDS011;43430;48.204;11.556;2023-01-29T08:23:52;9.93;;;4.60;;
57605;SDS011;43430;48.204;11.556;2023-01-29T08:26:17;10.20;;;4.57;;
57605;SDS011;43430;48.204;11.556;2023-01-29T08:28:43;12.57;;;6.05;;
57605;SDS011;43430;48.204;11.556;2023-01-29T08:31:15;11.23;;;4.88;;
57605;SDS011;43430;48.204;11.556;2023-01-29T08:33:41;13.43;;;5.50;;
57605;SDS011;43430;48.204;11.556;2023-01-29T08:36:07;11.50;;;4.40;;
57605;SDS011;43430;48.204;11.556;2023-01-29T08:38:33;12.30;;;5.10;;
57605;SDS011;43430;48.204;11.556;2023-01-29T08:40:59;11.13;;;5.75;;
57605;SDS011;43430;48.204;11.556;2023-01-29T08:43:24;14.65;;;6.78;;
57605;SDS011;43430;48.204;11.556;2023-01-29T08:45:49;13.00;;;5.82;;
57605;SDS011;43430;48.204;11.556;2023-01-29T08:48:15;12.48;;;5.50;;
57605;SDS011;43430;48.204;11.556;2023-01-29T08:50:40;11.18;;;5.53;;
57605;SDS011;43430;48.204;11.556;2023-01-29T08:53:06;13.65;;;6.25;;
57605;SDS011;43430;48.204;11.556;2023-01-29T08:55:36;13.15;;;5.65;;
57605;SDS011;43430;48.204;11.556;2023-01-29T08:58:05;11.23;;;5.47;;
57605;SDS011;43430;48.204;11.556;2023-01-29T09:00:35;13.05;;;6.22;;
57605;SDS011;43430;48.204;11.556;2023-01-29T09:03:00;11.20;;;5.50;;
57605;SDS011;43430;48.204;11.556;2023-01-29T09:05:26;17.60;;;6.22;;
57605;SDS011;43430;48.204;11.556;2023-01-29T09:07:52;13.23;;;5.32;;
57605;SDS011;43430;48.204;11.556;2023-01-29T09:10:18;12.38;;;4.70;;
57605;SDS011;43430;48.204;11.556;2023-01-29T09:12:44;14.38;;;5.85;;
57605;SDS011;43430;48.204;11.556;2023-01-29T09:15:09;12.82;;;5.97;;
57605;SDS011;43430;48.204;11.556;2023-01-29T09:17:35;12.57;;;5.22;;
57605;SDS011;43430;48.204;11.556;2023-01-29T09:20:00;10.57;;;4.43;;
57605;SDS011;43430;48.204;11.556;2023-01-29T09:22:26;11.00;;;4.65;;
57605;SDS011;43430;48.204;11.556;2023-01-29T09:24:52;11.50;;;5.40;;
57605;SDS011;43430;48.204;11.556;2023-01-29T09:27:17;9.27;;;5.07;;
57605;SDS011;43430;48.204;11.556;2023-01-29T09:29:43;12.70;;;5.68;;
57605;SDS011;43430;48.204;11.556;2023-01-29T09:32:08;15.07;;;9.43;;
57605;SDS011;43430;48.204;11.556;2023-01-29T09:34:33;17.05;;;9.18;;
57605;SDS011;43430;48.204;11.556;2023-01-29T09:36:59;11.85;;;6.68;;
57605;SDS011;43430;48.204;11.556;2023-01-29T09:39:24;13.13;;;5.60;;
57605;SDS011;43430;48.204;11.556;2023-01-29T09:41:52;12.75;;;5.50;;
57605;SDS011;43430;48.204;11.556;2023-01-29T09:44:22;11.18;;;5.55;;
57605;SDS011;43430;48.204;11.556;2023-01-29T09:46:51;13.55;;;5.60;;
57605;SDS011;43430;48.204;11.556;2023-01-29T09:52:06;11.18;;;5.45;;
57605;SDS011;43430;48.204;11.556;2023-01-29T09:54:59;12.93;;;5.85;;
57605;SDS011;43430;48.204;11.556;2023-01-29T09:57:28;14.77;;;5.82;;
57605;SDS011;43430;48.204;11.556;2023-01-29T10:00:05;13.68;;;5.07;;
57605;SDS011;43430;48.204;11.556;2023-01-29T10:02:50;11.98;;;5.32;;
57605;SDS011;43430;48.204;11.556;2023-01-29T10:08:06;11.13;;;4.90;;
57605;SDS011;43430;48.204;11.556;2023-01-29T10:10:54;11.65;;;4.80;;
57605;SDS011;43430;48.204;11.556;2023-01-29T10:13:36;12.13;;;5.03;;
57605;SDS011;43430;48.204;11.556;2023-01-29T10:19:39;11.02;;;5.07;;
57605;SDS011;43430;48.204;11.556;2023-01-29T10:25:05;13.75;;;6.25;;
57605;SDS011;43430;48.204;11.556;2023-01-29T10:27:35;17.05;;;6.43;;
57605;SDS011;43430;48.204;11.556;2023-01-29T10:30:05;10.75;;;4.70;;
57605;SDS011;43430;48.204;11.556;2023-01-29T10:32:35;10.57;;;4.85;;
57605;SDS011;43430;48.204;11.556;2023-01-29T10:35:02;13.23;;;5.45;;
57605;SDS011;43430;48.204;11.556;2023-01-29T10:40:49;9.23;;;4.57;;
57605;SDS011;43430;48.204;11.556;2023-01-29T10:43:10;9.88;;;4.55;;
57605;SDS011;43430;48.204;11.556;2023-01-29T11:02:19;12.77;;;5.43;;
57605;SDS011;43430;48.204;11.556;2023-01-29T11:04:46;15.57;;;6.00;;
57605;SDS011;43430;48.204;11.556;2023-01-29T11:07:12;10.32;;;4.53;;
57605;SDS011;43430;48.204;11.556;2023-01-29T11:09:43;11.55;;;5.07;;
57605;SDS011;43430;48.204;11.556;2023-01-29T11:12:22;8.88;;;4.35;;
57605;SDS011;43430;48.204;11.556;2023-01-29T11:14:55;10.38;;;4.90;;
57605;SDS011;43430;48.204;11.556;2023-01-29T11:17:29;9.57;;;4.63;;
57605;SDS011;43430;48.204;11.556;2023-01-29T11:19:54;12.32;;;5.90;;
57605;SDS011;43430;48.204;11.556;2023-01-29T11:22:21;9.52;;;4.65;;
57605;SDS011;43430;48.204;11.556;2023-01-29T11:27:44;10.68;;;4.60;;
57605;SDS011;43430;48.204;11.556;2023-01-29T11:30:18;10.50;;;4.07;;
57605;SDS011;43430;48.204;11.556;2023-01-29T11:33:29;10.82;;;4.38;;
57605;SDS011;43430;48.204;11.556;2023-01-29T11:35:48;9.98;;;4.63;;
57605;SDS011;43430;48.204;11.556;2023-01-29T11:38:18;10.63;;;4.68;;
57605;SDS011;43430;48.204;11.556;2023-01-29T11:40:48;11.93;;;4.78;;
57605;SDS011;43430;48.204;11.556;2023-01-29T11:45:55;10.10;;;4.90;;
57605;SDS011;43430;48.204;11.556;2023-01-29T11:48:46;12.32;;;5.32;;
57605;SDS011;43430;48.204;11.556;2023-01-29T11:51:24;13.77;;;7.05;;
57605;SDS011;43430;48.204;11.556;2023-01-29T11:53:53;11.13;;;4.93;;
57605;SDS011;43430;48.204;11.556;2023-01-29T11:58:58;8.93;;;5.18;;
57605;SDS011;43430;48.204;11.556;2023-01-29T12:01:32;10.13;;;4.57;;
57605;SDS011;43430;48.204;11.556;2023-01-29T12:07:03;10.88;;;5.25;;
57605;SDS011;43430;48.204;11.556;2023-01-29T12:09:40;9.30;;;5.10;;
57605;SDS011;43430;48.204;11.556;2023-01-29T12:15:02;11.30;;;5.82;;
57605;SDS011;43430;48.204;11.556;2023-01-29T12:31:28;9.23;;;4.68;;
57605;SDS011;43430;48.204;11.556;2023-01-29T12:36:49;10.40;;;5.38;;
57605;SDS011;43430;48.204;11.556;2023-01-29T12:39:20;13.70;;;5.47;;
57605;SDS011;43430;48.204;11.556;2023-01-29T12:44:29;10.98;;;5.47;;
57605;SDS011;43430;48.204;11.556;2023-01-29T12:46:59;10.10;;;5.50;;
57605;SDS011;43430;48.204;11.556;2023-01-29T12:49:27;13.95;;;6.90;;
57605;SDS011;43430;48.204;11.556;2023-01-29T12:51:59;12.90;;;5.25;;
57605;SDS011;43430;48.204;11.556;2023-01-29T12:54:38;12.13;;;6.38;;
57605;SDS011;43430;48.204;11.556;2023-01-29T12:57:55;16.45;;;6.47;;
57605;SDS011;43430;48.204;11.556;2023-01-29T13:00:19;12.60;;;6.38;;
57605;SDS011;43430;48.204;11.556;2023-01-29T13:02:55;11.77;;;5.40;;
57605;SDS011;43430;48.204;11.556;2023-01-29T13:05:28;12.93;;;5.70;;
57605;SDS011;43430;48.204;11.556;2023-01-29T13:08:15;12.65;;;5.38;;
57605;SDS011;43430;48.204;11.556;2023-01-29T13:10:47;11.80;;;6.57;;
57605;SDS011;43430;48.204;11.556;2023-01-29T13:13:19;13.77;;;6.43;;
57605;SDS011;43430;48.204;11.556;2023-01-29T13:15:52;12.52;;;6.47;;
57605;SDS011;43430;48.204;11.556;2023-01-29T13:20:57;13.43;;;6.28;;
57605;SDS011;43430;48.204;11.556;2023-01-29T13:23:29;14.30;;;7.38;;
57605;SDS011;43430;48.204;11.556;2023-01-29T13:25:59;12.88;;;6.32;;
57605;SDS011;43430;48.204;11.556;2023-01-29T13:28:25;14.10;;;6.43;;
57605;SDS011;43430;48.204;11.556;2023-01-29T13:36:55;17.42;;;7.13;;
57605;SDS011;43430;48.204;11.556;2023-01-29T13:41:51;14.05;;;6.40;;
57605;SDS011;43430;48.204;11.556;2023-01-29T13:44:22;11.90;;;6.30;;
57605;SDS011;43430;48.204;11.556;2023-01-29T13:46:57;13.70;;;6.45;;
57605;SDS011;43430;48.204;11.556;2023-01-29T13:49:32;13.48;;;6.28;;
57605;SDS011;43430;48.204;11.556;2023-01-29T13:54:47;13.95;;;6.55;;
57605;SDS011;43430;48.204;11.556;2023-01-29T14:03:32;14.73;;;5.95;;
57605;SDS011;43430;48.204;11.556;2023-01-29T14:05:39;11.73;;;6.40;;
57605;SDS011;43430;48.204;11.556;2023-01-29T14:10:37;13.82;;;6.55;;
57605;SDS011;43430;48.204;11.556;2023-01-29T14:15:35;15.10;;;7.10;;
57605;SDS011;43430;48.204;11.556;2023-01-29T14:18:02;13.27;;;6.63;;
57605;SDS011;43430;48.204;11.556;2023-01-29T14:26:08;14.60;;;6.22;;
57605;SDS011;43430;48.204;11.556;2023-01-29T14:28:59;13.57;;;6.63;;
57605;SDS011;43430;48.204;11.556;2023-01-29T14:31:35;12.90;;;5.97;;
57605;SDS011;43430;48.204;11.556;2023-01-29T14:36:27;12.95;;;5.72;;
57605;SDS011;43430;48.204;11.556;2023-01-29T14:38:53;11.77;;;5.70;;
57605;SDS011;43430;48.204;11.556;2023-01-29T14:41:26;12.95;;;5.97;;
57605;SDS011;43430;48.204;11.556;2023-01-29T14:47:07;13.38;;;6.47;;
57605;SDS011;43430;48.204;11.556;2023-01-29T14:52:17;15.25;;;7.30;;
57605;SDS011;43430;48.204;11.556;2023-01-29T14:55:00;12.02;;;5.70;;
57605;SDS011;43430;48.204;11.556;2023-01-29T14:57:30;11.75;;;5.65;;
57605;SDS011;43430;48.204;11.556;2023-01-29T15:00:00;11.85;;;6.07;;
57605;SDS011;43430;48.204;11.556;2023-01-29T15:02:39;13.60;;;6.57;;
57605;SDS011;43430;48.204;11.556;2023-01-29T15:05:10;12.05;;;5.72;;
57605;SDS011;43430;48.204;11.556;2023-01-29T15:07:50;13.48;;;6.32;;
57605;SDS011;43430;48.204;11.556;2023-01-29T15:10:22;13.60;;;6.15;;
57605;SDS011;43430;48.204;11.556;2023-01-29T15:13:00;14.45;;;6.88;;
57605;SDS011;43430;48.204;11.556;2023-01-29T15:15:53;13.60;;;6.13;;
57605;SDS011;43430;48.204;11.556;2023-01-29T15:18:32;12.27;;;5.88;;
57605;SDS011;43430;48.204;11.556;2023-01-29T15:21:09;12.88;;;6.22;;
57605;SDS011;43430;48.204;11.556;2023-01-29T15:23:37;14.05;;;6.45;;
57605;SDS011;43430;48.204;11.556;2023-01-29T15:26:10;12.98;;;6.38;;
57605;SDS011;43430;48.204;11.556;2023-01-29T15:28:39;14.07;;;6.43;;
57605;SDS011;43430;48.204;11.556;2023-01-29T15:31:06;11.95;;;5.43;;
57605;SDS011;43430;48.204;11.556;2023-01-29T15:33:37;15.90;;;6.65;;
57605;SDS011;43430;48.204;11.556;2023-01-29T15:36:06;13.75;;;5.85;;
57605;SDS011;43430;48.204;11.556;2023-01-29T15:38:39;13.75;;;6.25;;
57605;SDS011;43430;48.204;11.556;2023-01-29T15:41:18;14.35;;;6.97;;
57605;SDS011;43430;48.204;11.556;2023-01-29T15:43:47;14.82;;;6.57;;
57605;SDS011;43430;48.204;11.556;2023-01-29T15:46:28;14.13;;;6.78;;
57605;SDS011;43430;48.204;11.556;2023-01-29T15:48:59;14.85;;;6.90;;
57605;SDS011;43430;48.204;11.556;2023-01-29T15:51:30;15.60;;;6.57;;
57605;SDS011;43430;48.204;11.556;2023-01-29T15:53:59;14.02;;;6.72;;
57605;SDS011;43430;48.204;11.556;2023-01-29T15:56:35;12.50;;;6.75;;
57605;SDS011;43430;48.204;11.556;2023-01-29T15:59:03;15.98;;;7.28;;
57605;SDS011;43430;48.204;11.556;2023-01-29T16:01:32;14.30;;;6.78;;
57605;SDS011;43430;48.204;11.556;2023-01-29T16:03:58;16.85;;;7.10;;
57605;SDS011;43430;48.204;11.556;2023-01-29T16:06:26;16.83;;;7.78;;
57605;SDS011;43430;48.204;11.556;2023-01-29T16:08:58;13.30;;;6.25;;
57605;SDS011;43430;48.204;11.556;2023-01-29T16:11:23;16.98;;;7.57;;
57605;SDS011;43430;48.204;11.556;2023-01-29T16:13:49;13.93;;;7.07;;
57605;SDS011;43430;48.204;11.556;2023-01-29T16:16:25;14.77;;;7.25;;
57605;SDS011;43430;48.204;11.556;2023-01-29T16:18:51;18.50;;;7.63;;
57605;SDS011;43430;48.204;11.556;2023-01-29T16:21:22;15.32;;;7.47;;
57605;SDS011;43430;48.204;11.556;2023-01-29T16:23:49;15.32;;;7.18;;
57605;SDS011;43430;48.204;11.556;2023-01-29T16:26:21;13.77;;;6.03;;
57605;SDS011;43430;48.204;11.556;2023-01-29T16:28:50;14.82;;;6.97;;
57605;SDS011;43430;48.204;11.556;2023-01-29T16:31:20;13.88;;;6.78;;
57605;SDS011;43430;48.204;11.556;2023-01-29T16:33:49;17.42;;;7.10;;
57605;SDS011;43430;48.204;11.556;2023-01-29T16:36:19;15.77;;;7.00;;
57605;SDS011;43430;48.204;11.556;2023-01-29T16:38:55;14.57;;;6.72;;
57605;SDS011;43430;48.204;11.556;2023-01-29T16:46:43;12.48;;;6.60;;
57605;SDS011;43430;48.204;11.556;2023-01-29T16:51:51;13.88;;;6.72;;
57605;SDS011;43430;48.204;11.556;2023-01-29T16:54:19;18.95;;;7.72;;
57605;SDS011;43430;48.204;11.556;2023-01-29T16:56:48;12.68;;;5.72;;
57605;SDS011;43430;48.204;11.556;2023-01-29T16:59:20;13.85;;;6.40;;
57605;SDS011;43430;48.204;11.556;2023-01-29T17:01:51;15.80;;;7.15;;
57605;SDS011;43430;48.204;11.556;2023-01-29T17:04:19;14.95;;;7.00;;
57605;SDS011;43430;48.204;11.556;2023-01-29T17:06:46;13.68;;;6.80;;
57605;SDS011;43430;48.204;11.556;2023-01-29T17:09:20;15.25;;;7.38;;
57605;SDS011;43430;48.204;11.556;2023-01-29T17:11:54;13.90;;;6.47;;
57605;SDS011;43430;48.204;11.556;2023-01-29T17:14:23;17.33;;;8.48;;
57605;SDS011;43430;48.204;11.556;2023-01-29T17:16:52;19.65;;;9.05;;
57605;SDS011;43430;48.204;11.556;2023-01-29T17:19:26;16.58;;;7.72;;
57605;SDS011;43430;48.204;11.556;2023-01-29T17:21:54;12.90;;;6.57;;
57605;SDS011;43430;48.204;11.556;2023-01-29T17:24:23;15.00;;;7.55;;
57605;SDS011;43430;48.204;11.556;2023-01-29T17:26:52;17.67;;;8.27;;
57605;SDS011;43430;48.204;11.556;2023-01-29T17:29:20;16.20;;;8.23;;